sensor_id;sensor_type;location;lat;lon;timestamp;P1;durP1;ratioP1;P2;durP2;ratioP2
15716;SDS011;7960;50.908;4.204;2023-02-24T00:01:02;27.73;;;6.27;;
15716;SDS011;7960;50.908;4.204;2023-02-24T00:03:38;20.90;;;6.63;;
15716;SDS011;7960;50.908;4.204;2023-02-24T00:06:09;12.20;;;5.40;;
15716;SDS011;7960;50.908;4.204;2023-02-24T00:08:36;14.10;;;5.13;;
15716;SDS011;7960;50.908;4.204;2023-02-24T00:11:07;20.47;;;5.93;;
15716;SDS011;7960;50.908;4.204;2023-02-24T00:13:36;16.73;;;5.57;;
15716;SDS011;7960;50.908;4.204;2023-02-24T00:16:04;17.53;;;5.57;;
15716;SDS011;7960;50.908;4.204;2023-02-24T00:18:31;20.60;;;6.33;;
15716;SDS011;7960;50.908;4.204;2023-02-24T00:21:08;15.97;;;6.30;;
15716;SDS011;7960;50.908;4.204;2023-02-24T00:23:37;15.63;;;5.40;;
15716;SDS011;7960;50.908;4.204;2023-02-24T00:26:05;17.87;;;5.80;;
15716;SDS011;7960;50.908;4.204;2023-02-24T00:28:34;18.63;;;5.40;;
15716;SDS011;7960;50.908;4.204;2023-02-24T00:31:02;17.97;;;5.00;;
15716;SDS011;7960;50.908;4.204;2023-02-24T00:33:31;19.13;;;5.77;;
15716;SDS011;7960;50.908;4.204;2023-02-24T00:36:09;18.73;;;5.60;;
15716;SDS011;7960;50.908;4.204;2023-02-24T00:38:38;20.63;;;5.70;;
15716;SDS011;7960;50.908;4.204;2023-02-24T00:41:10;17.17;;;5.90;;
15716;SDS011;7960;50.908;4.204;2023-02-24T00:43:39;17.63;;;5.30;;
15716;SDS011;7960;50.908;4.204;2023-02-24T00:46:11;17.10;;;5.77;;
15716;SDS011;7960;50.908;4.204;2023-02-24T00:48:41;19.80;;;5.77;;
15716;SDS011;7960;50.908;4.204;2023-02-24T00:51:11;17.27;;;5.10;;
15716;SDS011;7960;50.908;4.204;2023-02-24T00:53:40;14.17;;;5.03;;
15716;SDS011;7960;50.908;4.204;2023-02-24T00:56:09;16.10;;;6.03;;
15716;SDS011;7960;50.908;4.204;2023-02-24T00:58:37;23.17;;;5.83;;
15716;SDS011;7960;50.908;4.204;2023-02-24T01:01:04;17.53;;;5.30;;
15716;SDS011;7960;50.908;4.204;2023-02-24T01:03:37;14.80;;;5.47;;
15716;SDS011;7960;50.908;4.204;2023-02-24T01:06:05;19.90;;;5.70;;
15716;SDS011;7960;50.908;4.204;2023-02-24T01:08:33;19.77;;;6.00;;
15716;SDS011;7960;50.908;4.204;2023-02-24T01:11:02;20.47;;;6.13;;
15716;SDS011;7960;50.908;4.204;2023-02-24T01:13:47;20.70;;;6.47;;
15716;SDS011;7960;50.908;4.204;2023-02-24T01:16:14;26.13;;;7.23;;
15716;SDS011;7960;50.908;4.204;2023-02-24T01:18:43;20.23;;;6.57;;
15716;SDS011;7960;50.908;4.204;2023-02-24T01:21:11;21.70;;;6.63;;
15716;SDS011;7960;50.908;4.204;2023-02-24T01:23:40;18.70;;;6.87;;
15716;SDS011;7960;50.908;4.204;2023-02-24T01:26:10;22.93;;;6.30;;
15716;SDS011;7960;50.908;4.204;2023-02-24T01:28:37;23.50;;;7.13;;
15716;SDS011;7960;50.908;4.204;2023-02-24T01:31:04;22.70;;;6.20;;
15716;SDS011;7960;50.908;4.204;2023-02-24T01:33:31;21.77;;;6.00;;
15716;SDS011;7960;50.908;4.204;2023-02-24T01:36:06;21.77;;;5.80;;
15716;SDS011;7960;50.908;4.204;2023-02-24T01:38:34;16.80;;;5.20;;
15716;SDS011;7960;50.908;4.204;2023-02-24T01:41:04;14.30;;;4.97;;
15716;SDS011;7960;50.908;4.204;2023-02-24T01:43:32;19.33;;;5.03;;
15716;SDS011;7960;50.908;4.204;2023-02-24T01:46:19;16.47;;;5.13;;
15716;SDS011;7960;50.908;4.204;2023-02-24T01:48:47;16.60;;;4.93;;
15716;SDS011;7960;50.908;4.204;2023-02-24T01:51:14;16.00;;;4.87;;
15716;SDS011;7960;50.908;4.204;2023-02-24T01:53:45;18.07;;;4.77;;
15716;SDS011;7960;50.908;4.204;2023-02-24T01:56:14;16.60;;;4.97;;
15716;SDS011;7960;50.908;4.204;2023-02-24T01:58:41;15.40;;;4.53;;
15716;SDS011;7960;50.908;4.204;2023-02-24T02:01:09;15.40;;;4.73;;
15716;SDS011;7960;50.908;4.204;2023-02-24T02:03:39;18.13;;;4.40;;
15716;SDS011;7960;50.908;4.204;2023-02-24T02:06:08;15.70;;;4.23;;
15716;SDS011;7960;50.908;4.204;2023-02-24T02:08:37;11.93;;;4.17;;
15716;SDS011;7960;50.908;4.204;2023-02-24T02:11:06;15.00;;;5.70;;
15716;SDS011;7960;50.908;4.204;2023-02-24T02:13:37;17.80;;;4.27;;
15716;SDS011;7960;50.908;4.204;2023-02-24T02:16:14;13.67;;;4.57;;
15716;SDS011;7960;50.908;4.204;2023-02-24T02:18:51;15.90;;;3.83;;
15716;SDS011;7960;50.908;4.204;2023-02-24T02:21:48;12.60;;;4.00;;
15716;SDS011;7960;50.908;4.204;2023-02-24T02:24:34;19.93;;;3.70;;
15716;SDS011;7960;50.908;4.204;2023-02-24T02:27:14;16.20;;;3.87;;
15716;SDS011;7960;50.908;4.204;2023-02-24T02:33:07;14.53;;;3.37;;
15716;SDS011;7960;50.908;4.204;2023-02-24T02:35:48;13.30;;;4.00;;
15716;SDS011;7960;50.908;4.204;2023-02-24T02:38:25;12.83;;;3.50;;
15716;SDS011;7960;50.908;4.204;2023-02-24T02:41:00;14.27;;;4.07;;
15716;SDS011;7960;50.908;4.204;2023-02-24T02:43:33;17.43;;;4.43;;
15716;SDS011;7960;50.908;4.204;2023-02-24T02:46:07;12.87;;;3.87;;
15716;SDS011;7960;50.908;4.204;2023-02-24T02:48:39;12.57;;;3.63;;
15716;SDS011;7960;50.908;4.204;2023-02-24T02:51:16;18.37;;;4.00;;
15716;SDS011;7960;50.908;4.204;2023-02-24T02:53:47;11.00;;;3.20;;
15716;SDS011;7960;50.908;4.204;2023-02-24T02:56:18;18.07;;;4.40;;
15716;SDS011;7960;50.908;4.204;2023-02-24T02:58:48;22.00;;;4.03;;
15716;SDS011;7960;50.908;4.204;2023-02-24T03:01:19;20.03;;;4.10;;
15716;SDS011;7960;50.908;4.204;2023-02-24T03:03:50;17.60;;;3.40;;
15716;SDS011;7960;50.908;4.204;2023-02-24T03:08:50;16.00;;;3.93;;
15716;SDS011;7960;50.908;4.204;2023-02-24T03:11:22;12.33;;;4.57;;
15716;SDS011;7960;50.908;4.204;2023-02-24T03:13:51;19.47;;;4.33;;
15716;SDS011;7960;50.908;4.204;2023-02-24T03:16:22;17.00;;;4.40;;
15716;SDS011;7960;50.908;4.204;2023-02-24T03:18:51;13.17;;;3.33;;
15716;SDS011;7960;50.908;4.204;2023-02-24T03:21:25;15.47;;;3.83;;
15716;SDS011;7960;50.908;4.204;2023-02-24T03:23:57;16.27;;;3.73;;
15716;SDS011;7960;50.908;4.204;2023-02-24T03:26:27;23.73;;;5.00;;
15716;SDS011;7960;50.908;4.204;2023-02-24T03:29:00;12.70;;;3.57;;
15716;SDS011;7960;50.908;4.204;2023-02-24T03:31:32;11.40;;;3.20;;
15716;SDS011;7960;50.908;4.204;2023-02-24T03:34:05;12.13;;;3.93;;
15716;SDS011;7960;50.908;4.204;2023-02-24T03:36:38;20.80;;;3.10;;
15716;SDS011;7960;50.908;4.204;2023-02-24T03:39:07;11.73;;;3.57;;
15716;SDS011;7960;50.908;4.204;2023-02-24T03:41:36;15.60;;;3.50;;
15716;SDS011;7960;50.908;4.204;2023-02-24T03:44:07;12.43;;;3.30;;
15716;SDS011;7960;50.908;4.204;2023-02-24T03:46:36;14.73;;;3.10;;
15716;SDS011;7960;50.908;4.204;2023-02-24T03:49:07;12.17;;;3.70;;
15716;SDS011;7960;50.908;4.204;2023-02-24T03:51:39;14.57;;;3.93;;
15716;SDS011;7960;50.908;4.204;2023-02-24T03:54:11;15.93;;;3.80;;
15716;SDS011;7960;50.908;4.204;2023-02-24T03:56:48;14.73;;;3.87;;
15716;SDS011;7960;50.908;4.204;2023-02-24T03:59:26;20.67;;;4.03;;
15716;SDS011;7960;50.908;4.204;2023-02-24T04:02:04;14.00;;;3.70;;
15716;SDS011;7960;50.908;4.204;2023-02-24T04:04:38;11.83;;;3.23;;
15716;SDS011;7960;50.908;4.204;2023-02-24T04:07:12;13.40;;;3.43;;
15716;SDS011;7960;50.908;4.204;2023-02-24T04:09:42;8.77;;;3.03;;
15716;SDS011;7960;50.908;4.204;2023-02-24T04:12:16;16.53;;;3.50;;
15716;SDS011;7960;50.908;4.204;2023-02-24T04:14:48;12.17;;;3.00;;
15716;SDS011;7960;50.908;4.204;2023-02-24T04:17:18;16.53;;;3.23;;
15716;SDS011;7960;50.908;4.204;2023-02-24T04:19:48;8.17;;;3.10;;
15716;SDS011;7960;50.908;4.204;2023-02-24T04:22:19;13.87;;;3.30;;
15716;SDS011;7960;50.908;4.204;2023-02-24T04:24:49;14.33;;;3.50;;
15716;SDS011;7960;50.908;4.204;2023-02-24T04:27:19;15.27;;;3.43;;
15716;SDS011;7960;50.908;4.204;2023-02-24T04:29:49;13.30;;;3.60;;
15716;SDS011;7960;50.908;4.204;2023-02-24T04:32:20;14.40;;;3.77;;
15716;SDS011;7960;50.908;4.204;2023-02-24T04:34:52;10.73;;;2.80;;
15716;SDS011;7960;50.908;4.204;2023-02-24T04:37:27;21.10;;;4.63;;
15716;SDS011;7960;50.908;4.204;2023-02-24T04:39:57;9.93;;;2.90;;
15716;SDS011;7960;50.908;4.204;2023-02-24T04:42:25;14.00;;;3.17;;
15716;SDS011;7960;50.908;4.204;2023-02-24T04:44:52;12.00;;;3.67;;
15716;SDS011;7960;50.908;4.204;2023-02-24T04:47:18;14.07;;;3.63;;
15716;SDS011;7960;50.908;4.204;2023-02-24T04:49:46;16.70;;;3.80;;
15716;SDS011;7960;50.908;4.204;2023-02-24T04:52:13;13.57;;;3.57;;
15716;SDS011;7960;50.908;4.204;2023-02-24T04:54:43;10.30;;;3.10;;
15716;SDS011;7960;50.908;4.204;2023-02-24T04:57:09;13.37;;;3.57;;
15716;SDS011;7960;50.908;4.204;2023-02-24T04:59:36;12.03;;;3.03;;
15716;SDS011;7960;50.908;4.204;2023-02-24T05:02:04;19.43;;;3.90;;
15716;SDS011;7960;50.908;4.204;2023-02-24T05:04:33;14.63;;;3.33;;
15716;SDS011;7960;50.908;4.204;2023-02-24T05:07:02;20.87;;;3.80;;
15716;SDS011;7960;50.908;4.204;2023-02-24T05:09:29;18.20;;;4.37;;
15716;SDS011;7960;50.908;4.204;2023-02-24T05:11:58;18.00;;;5.17;;
15716;SDS011;7960;50.908;4.204;2023-02-24T05:14:25;13.17;;;3.70;;
15716;SDS011;7960;50.908;4.204;2023-02-24T05:16:51;15.60;;;4.13;;
15716;SDS011;7960;50.908;4.204;2023-02-24T05:19:24;14.43;;;3.93;;
15716;SDS011;7960;50.908;4.204;2023-02-24T05:22:09;12.97;;;3.80;;
15716;SDS011;7960;50.908;4.204;2023-02-24T05:24:41;14.80;;;3.90;;
15716;SDS011;7960;50.908;4.204;2023-02-24T05:27:09;15.50;;;3.97;;
15716;SDS011;7960;50.908;4.204;2023-02-24T05:29:36;18.33;;;4.10;;
15716;SDS011;7960;50.908;4.204;2023-02-24T05:32:04;14.63;;;3.70;;
15716;SDS011;7960;50.908;4.204;2023-02-24T05:34:32;12.73;;;3.67;;
15716;SDS011;7960;50.908;4.204;2023-02-24T05:36:59;21.43;;;5.17;;
15716;SDS011;7960;50.908;4.204;2023-02-24T05:39:34;17.50;;;3.63;;
15716;SDS011;7960;50.908;4.204;2023-02-24T05:42:02;13.90;;;4.23;;
15716;SDS011;7960;50.908;4.204;2023-02-24T05:44:32;15.70;;;4.00;;
15716;SDS011;7960;50.908;4.204;2023-02-24T05:46:59;15.03;;;4.43;;
15716;SDS011;7960;50.908;4.204;2023-02-24T05:49:29;18.13;;;4.60;;
15716;SDS011;7960;50.908;4.204;2023-02-24T05:51:58;13.77;;;3.70;;
15716;SDS011;7960;50.908;4.204;2023-02-24T05:54:32;13.17;;;3.73;;
15716;SDS011;7960;50.908;4.204;2023-02-24T05:57:00;19.77;;;4.40;;
15716;SDS011;7960;50.908;4.204;2023-02-24T05:59:29;15.37;;;3.73;;
15716;SDS011;7960;50.908;4.204;2023-02-24T06:01:59;21.40;;;4.73;;
15716;SDS011;7960;50.908;4.204;2023-02-24T06:04:31;9.97;;;3.13;;
15716;SDS011;7960;50.908;4.204;2023-02-24T06:07:04;20.03;;;3.77;;
15716;SDS011;7960;50.908;4.204;2023-02-24T06:09:32;11.77;;;3.03;;
15716;SDS011;7960;50.908;4.204;2023-02-24T06:12:04;16.97;;;4.03;;
15716;SDS011;7960;50.908;4.204;2023-02-24T06:14:31;17.93;;;3.63;;
15716;SDS011;7960;50.908;4.204;2023-02-24T06:17:00;11.33;;;3.40;;
15716;SDS011;7960;50.908;4.204;2023-02-24T06:19:27;16.60;;;3.00;;
15716;SDS011;7960;50.908;4.204;2023-02-24T06:21:56;14.33;;;3.87;;
15716;SDS011;7960;50.908;4.204;2023-02-24T06:24:25;17.70;;;3.80;;
15716;SDS011;7960;50.908;4.204;2023-02-24T06:26:53;8.63;;;3.40;;
15716;SDS011;7960;50.908;4.204;2023-02-24T06:29:27;5.70;;;3.13;;
15716;SDS011;7960;50.908;4.204;2023-02-24T06:31:55;9.63;;;3.30;;
15716;SDS011;7960;50.908;4.204;2023-02-24T06:34:24;8.93;;;2.90;;
15716;SDS011;7960;50.908;4.204;2023-02-24T06:36:51;11.77;;;3.13;;
15716;SDS011;7960;50.908;4.204;2023-02-24T06:39:18;7.20;;;3.13;;
15716;SDS011;7960;50.908;4.204;2023-02-24T06:41:47;11.43;;;3.53;;
15716;SDS011;7960;50.908;4.204;2023-02-24T06:44:15;10.87;;;2.60;;
15716;SDS011;7960;50.908;4.204;2023-02-24T06:46:42;13.93;;;3.40;;
15716;SDS011;7960;50.908;4.204;2023-02-24T06:49:10;15.23;;;3.07;;
15716;SDS011;7960;50.908;4.204;2023-02-24T06:51:38;11.27;;;3.13;;
15716;SDS011;7960;50.908;4.204;2023-02-24T06:54:07;10.57;;;3.30;;
15716;SDS011;7960;50.908;4.204;2023-02-24T06:56:34;11.10;;;2.90;;
15716;SDS011;7960;50.908;4.204;2023-02-24T06:59:03;12.00;;;3.23;;
15716;SDS011;7960;50.908;4.204;2023-02-24T07:01:31;13.27;;;3.27;;
15716;SDS011;7960;50.908;4.204;2023-02-24T07:04:00;12.67;;;3.83;;
15716;SDS011;7960;50.908;4.204;2023-02-24T07:06:50;11.33;;;5.67;;
15716;SDS011;7960;50.908;4.204;2023-02-24T07:09:21;10.13;;;3.20;;
15716;SDS011;7960;50.908;4.204;2023-02-24T07:11:49;15.83;;;3.33;;
15716;SDS011;7960;50.908;4.204;2023-02-24T07:14:17;7.87;;;3.40;;
15716;SDS011;7960;50.908;4.204;2023-02-24T07:16:46;7.00;;;3.17;;
15716;SDS011;7960;50.908;4.204;2023-02-24T07:19:18;13.90;;;5.10;;
15716;SDS011;7960;50.908;4.204;2023-02-24T07:21:46;17.83;;;3.83;;
15716;SDS011;7960;50.908;4.204;2023-02-24T07:24:16;8.70;;;3.33;;
15716;SDS011;7960;50.908;4.204;2023-02-24T07:26:56;12.70;;;3.67;;
15716;SDS011;7960;50.908;4.204;2023-02-24T07:29:25;20.37;;;3.67;;
15716;SDS011;7960;50.908;4.204;2023-02-24T07:31:54;17.07;;;3.90;;
15716;SDS011;7960;50.908;4.204;2023-02-24T07:34:25;12.47;;;3.60;;
15716;SDS011;7960;50.908;4.204;2023-02-24T07:36:52;10.83;;;3.33;;
15716;SDS011;7960;50.908;4.204;2023-02-24T07:39:22;14.77;;;3.70;;
15716;SDS011;7960;50.908;4.204;2023-02-24T07:41:50;13.63;;;4.13;;
15716;SDS011;7960;50.908;4.204;2023-02-24T07:44:20;11.80;;;3.80;;
15716;SDS011;7960;50.908;4.204;2023-02-24T07:46:48;12.20;;;3.57;;
15716;SDS011;7960;50.908;4.204;2023-02-24T07:49:16;11.93;;;3.70;;
15716;SDS011;7960;50.908;4.204;2023-02-24T07:51:45;10.00;;;4.00;;
15716;SDS011;7960;50.908;4.204;2023-02-24T07:54:16;10.77;;;3.97;;
15716;SDS011;7960;50.908;4.204;2023-02-24T07:56:46;13.57;;;4.60;;
15716;SDS011;7960;50.908;4.204;2023-02-24T07:59:20;10.07;;;3.97;;
15716;SDS011;7960;50.908;4.204;2023-02-24T08:01:47;12.23;;;4.03;;
15716;SDS011;7960;50.908;4.204;2023-02-24T08:04:16;10.40;;;3.83;;
15716;SDS011;7960;50.908;4.204;2023-02-24T08:06:47;10.63;;;4.23;;
15716;SDS011;7960;50.908;4.204;2023-02-24T08:09:20;10.53;;;4.37;;
15716;SDS011;7960;50.908;4.204;2023-02-24T08:12:05;16.43;;;4.50;;
15716;SDS011;7960;50.908;4.204;2023-02-24T08:14:32;9.40;;;3.90;;
15716;SDS011;7960;50.908;4.204;2023-02-24T08:17:00;10.50;;;4.70;;
15716;SDS011;7960;50.908;4.204;2023-02-24T08:19:30;10.47;;;4.30;;
15716;SDS011;7960;50.908;4.204;2023-02-24T08:22:04;13.17;;;3.77;;
15716;SDS011;7960;50.908;4.204;2023-02-24T08:24:43;18.20;;;4.50;;
15716;SDS011;7960;50.908;4.204;2023-02-24T08:27:17;14.00;;;4.00;;
15716;SDS011;7960;50.908;4.204;2023-02-24T08:29:46;13.30;;;4.60;;
15716;SDS011;7960;50.908;4.204;2023-02-24T08:32:24;16.40;;;4.43;;
15716;SDS011;7960;50.908;4.204;2023-02-24T08:34:51;9.97;;;3.97;;
15716;SDS011;7960;50.908;4.204;2023-02-24T08:37:26;10.07;;;3.77;;
15716;SDS011;7960;50.908;4.204;2023-02-24T08:39:57;14.03;;;4.47;;
15716;SDS011;7960;50.908;4.204;2023-02-24T08:42:26;10.80;;;4.20;;
15716;SDS011;7960;50.908;4.204;2023-02-24T08:44:58;13.23;;;3.77;;
15716;SDS011;7960;50.908;4.204;2023-02-24T08:47:26;13.57;;;4.67;;
15716;SDS011;7960;50.908;4.204;2023-02-24T08:49:57;14.27;;;3.67;;
15716;SDS011;7960;50.908;4.204;2023-02-24T08:52:25;17.50;;;3.87;;
15716;SDS011;7960;50.908;4.204;2023-02-24T08:54:53;10.67;;;3.60;;
15716;SDS011;7960;50.908;4.204;2023-02-24T08:57:27;17.00;;;4.30;;
15716;SDS011;7960;50.908;4.204;2023-02-24T08:59:53;13.70;;;3.63;;
15716;SDS011;7960;50.908;4.204;2023-02-24T09:02:23;6.90;;;3.00;;
15716;SDS011;7960;50.908;4.204;2023-02-24T09:04:54;14.47;;;3.83;;
15716;SDS011;7960;50.908;4.204;2023-02-24T09:07:23;9.60;;;3.67;;
15716;SDS011;7960;50.908;4.204;2023-02-24T09:09:52;8.23;;;3.10;;
15716;SDS011;7960;50.908;4.204;2023-02-24T09:12:21;8.77;;;3.10;;
15716;SDS011;7960;50.908;4.204;2023-02-24T09:14:51;9.77;;;3.27;;
15716;SDS011;7960;50.908;4.204;2023-02-24T09:17:21;8.43;;;3.13;;
15716;SDS011;7960;50.908;4.204;2023-02-24T09:20:04;9.97;;;2.83;;
15716;SDS011;7960;50.908;4.204;2023-02-24T09:23:20;6.60;;;2.50;;
15716;SDS011;7960;50.908;4.204;2023-02-24T09:25:54;11.03;;;2.93;;
15716;SDS011;7960;50.908;4.204;2023-02-24T09:28:22;9.50;;;2.73;;
15716;SDS011;7960;50.908;4.204;2023-02-24T09:30:52;12.73;;;3.10;;
15716;SDS011;7960;50.908;4.204;2023-02-24T09:33:22;6.47;;;2.67;;
15716;SDS011;7960;50.908;4.204;2023-02-24T09:35:51;6.87;;;2.80;;
15716;SDS011;7960;50.908;4.204;2023-02-24T09:38:27;8.80;;;2.80;;
15716;SDS011;7960;50.908;4.204;2023-02-24T09:41:17;8.07;;;2.80;;
15716;SDS011;7960;50.908;4.204;2023-02-24T09:43:55;11.63;;;2.93;;
15716;SDS011;7960;50.908;4.204;2023-02-24T09:46:29;8.60;;;2.97;;
15716;SDS011;7960;50.908;4.204;2023-02-24T09:49:01;5.63;;;2.57;;
15716;SDS011;7960;50.908;4.204;2023-02-24T09:51:36;8.33;;;3.83;;
15716;SDS011;7960;50.908;4.204;2023-02-24T09:54:10;10.63;;;2.87;;
15716;SDS011;7960;50.908;4.204;2023-02-24T09:56:40;9.40;;;2.90;;
15716;SDS011;7960;50.908;4.204;2023-02-24T09:59:14;9.27;;;3.03;;
15716;SDS011;7960;50.908;4.204;2023-02-24T10:01:52;9.20;;;2.60;;
15716;SDS011;7960;50.908;4.204;2023-02-24T10:04:32;10.20;;;2.80;;
15716;SDS011;7960;50.908;4.204;2023-02-24T10:07:13;9.33;;;3.00;;
15716;SDS011;7960;50.908;4.204;2023-02-24T10:09:43;9.80;;;2.60;;
15716;SDS011;7960;50.908;4.204;2023-02-24T10:12:17;8.00;;;3.03;;
15716;SDS011;7960;50.908;4.204;2023-02-24T10:14:49;9.50;;;2.63;;
15716;SDS011;7960;50.908;4.204;2023-02-24T10:17:45;12.03;;;2.80;;
15716;SDS011;7960;50.908;4.204;2023-02-24T10:20:17;14.27;;;2.77;;
15716;SDS011;7960;50.908;4.204;2023-02-24T10:22:56;8.07;;;2.87;;
15716;SDS011;7960;50.908;4.204;2023-02-24T10:25:33;12.43;;;3.03;;
15716;SDS011;7960;50.908;4.204;2023-02-24T10:28:11;9.33;;;3.17;;
15716;SDS011;7960;50.908;4.204;2023-02-24T10:30:49;12.13;;;3.30;;
15716;SDS011;7960;50.908;4.204;2023-02-24T10:33:31;4.60;;;2.90;;
15716;SDS011;7960;50.908;4.204;2023-02-24T10:36:06;10.23;;;3.37;;
15716;SDS011;7960;50.908;4.204;2023-02-24T10:38:35;9.83;;;3.60;;
15716;SDS011;7960;50.908;4.204;2023-02-24T10:41:07;7.73;;;3.33;;
15716;SDS011;7960;50.908;4.204;2023-02-24T10:43:34;7.63;;;2.90;;
15716;SDS011;7960;50.908;4.204;2023-02-24T10:46:17;9.23;;;3.17;;
15716;SDS011;7960;50.908;4.204;2023-02-24T10:48:51;6.77;;;3.00;;
15716;SDS011;7960;50.908;4.204;2023-02-24T10:51:24;10.00;;;2.93;;
15716;SDS011;7960;50.908;4.204;2023-02-24T10:54:05;8.60;;;3.10;;
15716;SDS011;7960;50.908;4.204;2023-02-24T10:56:46;8.40;;;3.30;;
15716;SDS011;7960;50.908;4.204;2023-02-24T10:59:39;13.30;;;3.27;;
15716;SDS011;7960;50.908;4.204;2023-02-24T11:02:56;7.50;;;2.93;;
15716;SDS011;7960;50.908;4.204;2023-02-24T11:05:36;7.07;;;2.87;;
15716;SDS011;7960;50.908;4.204;2023-02-24T11:08:20;5.67;;;3.00;;
15716;SDS011;7960;50.908;4.204;2023-02-24T11:11:07;5.33;;;3.00;;
15716;SDS011;7960;50.908;4.204;2023-02-24T11:13:46;7.53;;;3.60;;
15716;SDS011;7960;50.908;4.204;2023-02-24T11:16:39;8.30;;;3.17;;
15716;SDS011;7960;50.908;4.204;2023-02-24T11:19:26;10.13;;;3.67;;
15716;SDS011;7960;50.908;4.204;2023-02-24T11:21:56;8.40;;;3.00;;
15716;SDS011;7960;50.908;4.204;2023-02-24T11:24:25;7.30;;;3.23;;
15716;SDS011;7960;50.908;4.204;2023-02-24T11:26:54;7.70;;;3.03;;
15716;SDS011;7960;50.908;4.204;2023-02-24T11:29:25;12.03;;;3.40;;
15716;SDS011;7960;50.908;4.204;2023-02-24T11:32:07;9.63;;;3.50;;
15716;SDS011;7960;50.908;4.204;2023-02-24T11:34:55;10.87;;;3.50;;
15716;SDS011;7960;50.908;4.204;2023-02-24T11:37:32;4.00;;;2.53;;
15716;SDS011;7960;50.908;4.204;2023-02-24T11:40:04;10.10;;;3.40;;
15716;SDS011;7960;50.908;4.204;2023-02-24T11:42:38;10.93;;;3.43;;
15716;SDS011;7960;50.908;4.204;2023-02-24T11:45:24;8.47;;;3.27;;
15716;SDS011;7960;50.908;4.204;2023-02-24T11:47:56;12.67;;;4.20;;
15716;SDS011;7960;50.908;4.204;2023-02-24T11:50:29;5.83;;;2.83;;
15716;SDS011;7960;50.908;4.204;2023-02-24T11:53:14;6.87;;;3.43;;
15716;SDS011;7960;50.908;4.204;2023-02-24T11:55:53;9.33;;;3.83;;
15716;SDS011;7960;50.908;4.204;2023-02-24T11:58:27;11.53;;;3.73;;
15716;SDS011;7960;50.908;4.204;2023-02-24T12:01:00;8.77;;;4.17;;
15716;SDS011;7960;50.908;4.204;2023-02-24T12:03:34;14.60;;;3.93;;
15716;SDS011;7960;50.908;4.204;2023-02-24T12:06:12;10.00;;;3.60;;
15716;SDS011;7960;50.908;4.204;2023-02-24T12:08:47;11.30;;;4.27;;
15716;SDS011;7960;50.908;4.204;2023-02-24T12:11:19;8.07;;;4.00;;
15716;SDS011;7960;50.908;4.204;2023-02-24T12:13:53;7.87;;;3.90;;
15716;SDS011;7960;50.908;4.204;2023-02-24T12:16:29;12.83;;;3.90;;
15716;SDS011;7960;50.908;4.204;2023-02-24T12:19:01;9.63;;;3.80;;
15716;SDS011;7960;50.908;4.204;2023-02-24T12:21:32;11.67;;;3.87;;
15716;SDS011;7960;50.908;4.204;2023-02-24T12:24:05;9.80;;;4.10;;
15716;SDS011;7960;50.908;4.204;2023-02-24T12:26:37;6.57;;;3.97;;
15716;SDS011;7960;50.908;4.204;2023-02-24T12:32:12;13.73;;;4.70;;
15716;SDS011;7960;50.908;4.204;2023-02-24T12:34:51;9.97;;;4.20;;
15716;SDS011;7960;50.908;4.204;2023-02-24T12:37:31;11.53;;;4.00;;
15716;SDS011;7960;50.908;4.204;2023-02-24T12:40:19;9.43;;;3.57;;
15716;SDS011;7960;50.908;4.204;2023-02-24T12:42:57;9.00;;;3.83;;
15716;SDS011;7960;50.908;4.204;2023-02-24T12:45:33;8.20;;;4.20;;
15716;SDS011;7960;50.908;4.204;2023-02-24T12:48:10;10.40;;;4.33;;
15716;SDS011;7960;50.908;4.204;2023-02-24T12:50:48;11.40;;;4.00;;
15716;SDS011;7960;50.908;4.204;2023-02-24T12:53:22;13.23;;;4.27;;
15716;SDS011;7960;50.908;4.204;2023-02-24T12:55:59;14.93;;;4.40;;
15716;SDS011;7960;50.908;4.204;2023-02-24T12:58:31;8.63;;;4.63;;
15716;SDS011;7960;50.908;4.204;2023-02-24T13:01:04;12.10;;;4.00;;
15716;SDS011;7960;50.908;4.204;2023-02-24T13:03:48;12.03;;;4.13;;
15716;SDS011;7960;50.908;4.204;2023-02-24T13:06:38;13.13;;;4.27;;
15716;SDS011;7960;50.908;4.204;2023-02-24T13:09:20;11.20;;;4.30;;
15716;SDS011;7960;50.908;4.204;2023-02-24T13:11:55;14.23;;;5.20;;
15716;SDS011;7960;50.908;4.204;2023-02-24T13:14:27;13.03;;;6.57;;
15716;SDS011;7960;50.908;4.204;2023-02-24T13:17:03;10.67;;;4.87;;
15716;SDS011;7960;50.908;4.204;2023-02-24T13:19:32;11.73;;;5.60;;
15716;SDS011;7960;50.908;4.204;2023-02-24T13:22:02;14.53;;;5.40;;
15716;SDS011;7960;50.908;4.204;2023-02-24T13:24:33;9.70;;;4.87;;
15716;SDS011;7960;50.908;4.204;2023-02-24T13:27:05;12.60;;;5.70;;
15716;SDS011;7960;50.908;4.204;2023-02-24T13:29:43;11.90;;;5.30;;
15716;SDS011;7960;50.908;4.204;2023-02-24T13:35:00;15.43;;;5.23;;
15716;SDS011;7960;50.908;4.204;2023-02-24T13:37:29;11.07;;;5.93;;
15716;SDS011;7960;50.908;4.204;2023-02-24T13:39:59;8.77;;;5.50;;
15716;SDS011;7960;50.908;4.204;2023-02-24T13:42:42;9.13;;;5.43;;
15716;SDS011;7960;50.908;4.204;2023-02-24T13:45:17;12.53;;;6.30;;
15716;SDS011;7960;50.908;4.204;2023-02-24T13:50:52;24.80;;;6.73;;
15716;SDS011;7960;50.908;4.204;2023-02-24T13:53:31;9.47;;;6.23;;
15716;SDS011;7960;50.908;4.204;2023-02-24T13:56:09;9.47;;;6.13;;
15716;SDS011;7960;50.908;4.204;2023-02-24T13:58:49;9.43;;;5.83;;
15716;SDS011;7960;50.908;4.204;2023-02-24T14:01:26;9.57;;;5.97;;
15716;SDS011;7960;50.908;4.204;2023-02-24T14:04:04;16.73;;;6.60;;
15716;SDS011;7960;50.908;4.204;2023-02-24T14:06:38;18.37;;;7.20;;
15716;SDS011;7960;50.908;4.204;2023-02-24T14:09:05;18.20;;;6.83;;
15716;SDS011;7960;50.908;4.204;2023-02-24T14:11:33;11.50;;;6.90;;
15716;SDS011;7960;50.908;4.204;2023-02-24T14:14:03;15.70;;;7.20;;
15716;SDS011;7960;50.908;4.204;2023-02-24T14:16:32;11.10;;;6.90;;
15716;SDS011;7960;50.908;4.204;2023-02-24T14:19:05;17.53;;;6.80;;
15716;SDS011;7960;50.908;4.204;2023-02-24T14:21:45;16.23;;;7.40;;
15716;SDS011;7960;50.908;4.204;2023-02-24T14:24:13;13.33;;;7.10;;
15716;SDS011;7960;50.908;4.204;2023-02-24T14:26:41;11.80;;;6.93;;
15716;SDS011;7960;50.908;4.204;2023-02-24T14:29:12;15.37;;;7.20;;
15716;SDS011;7960;50.908;4.204;2023-02-24T14:31:45;12.20;;;7.37;;
15716;SDS011;7960;50.908;4.204;2023-02-24T14:34:15;12.60;;;6.70;;
15716;SDS011;7960;50.908;4.204;2023-02-24T14:36:45;11.70;;;6.90;;
15716;SDS011;7960;50.908;4.204;2023-02-24T14:39:13;11.53;;;7.07;;
15716;SDS011;7960;50.908;4.204;2023-02-24T14:41:43;9.83;;;6.17;;
15716;SDS011;7960;50.908;4.204;2023-02-24T14:44:18;12.20;;;6.70;;
15716;SDS011;7960;50.908;4.204;2023-02-24T14:46:48;13.77;;;7.40;;
15716;SDS011;7960;50.908;4.204;2023-02-24T14:49:18;13.17;;;6.90;;
15716;SDS011;7960;50.908;4.204;2023-02-24T14:51:48;15.57;;;7.43;;
15716;SDS011;7960;50.908;4.204;2023-02-24T14:54:19;12.60;;;7.17;;
15716;SDS011;7960;50.908;4.204;2023-02-24T14:57:01;13.70;;;7.03;;
15716;SDS011;7960;50.908;4.204;2023-02-24T14:59:31;10.83;;;7.37;;
15716;SDS011;7960;50.908;4.204;2023-02-24T15:02:00;9.87;;;6.90;;
15716;SDS011;7960;50.908;4.204;2023-02-24T15:04:32;10.90;;;7.53;;
15716;SDS011;7960;50.908;4.204;2023-02-24T15:07:02;10.07;;;7.33;;
15716;SDS011;7960;50.908;4.204;2023-02-24T15:09:33;12.37;;;6.97;;
15716;SDS011;7960;50.908;4.204;2023-02-24T15:12:11;10.27;;;7.73;;
15716;SDS011;7960;50.908;4.204;2023-02-24T15:14:52;14.53;;;7.97;;
15716;SDS011;7960;50.908;4.204;2023-02-24T15:17:22;9.67;;;7.47;;
15716;SDS011;7960;50.908;4.204;2023-02-24T15:19:50;10.67;;;7.73;;
15716;SDS011;7960;50.908;4.204;2023-02-24T15:22:20;11.77;;;7.90;;
15716;SDS011;7960;50.908;4.204;2023-02-24T15:24:50;14.33;;;8.43;;
15716;SDS011;7960;50.908;4.204;2023-02-24T15:27:24;12.77;;;8.00;;
15716;SDS011;7960;50.908;4.204;2023-02-24T15:30:00;11.50;;;9.07;;
15716;SDS011;7960;50.908;4.204;2023-02-24T15:32:32;11.10;;;8.90;;
15716;SDS011;7960;50.908;4.204;2023-02-24T15:35:01;12.53;;;9.70;;
15716;SDS011;7960;50.908;4.204;2023-02-24T15:37:31;13.07;;;9.33;;